createdAt,value
2022-10-23T00:00:35.577Z,68.70
2022-10-23T00:03:02.461Z,68.90
2022-10-23T00:05:29.597Z,68.20
2022-10-23T00:07:59.375Z,68.20
2022-10-23T00:10:29.910Z,69.60
2022-10-23T00:12:56.631Z,69.60
2022-10-23T00:15:23.629Z,69.70
2022-10-23T00:17:50.610Z,70.70
2022-10-23T00:20:17.777Z,70.10
2022-10-23T00:22:44.619Z,69.80
2022-10-23T00:25:13.637Z,70.50
2022-10-23T00:27:40.496Z,69.40
2022-10-23T00:30:07.896Z,69.50
2022-10-23T00:32:34.574Z,70.30
2022-10-23T00:35:01.378Z,70.30
2022-10-23T00:37:28.041Z,70.30
2022-10-23T00:39:54.916Z,71.70
2022-10-23T00:42:23.559Z,70.80
2022-10-23T00:44:50.337Z,71.00
2022-10-23T00:47:17.744Z,70.70
2022-10-23T00:49:44.438Z,71.90
2022-10-23T00:52:13.208Z,72.00
2022-10-23T00:54:42.165Z,71.70
2022-10-23T00:57:12.923Z,72.20
2022-10-23T00:59:40.154Z,72.00
2022-10-23T01:02:08.333Z,71.50
2022-10-23T01:04:35.228Z,71.90
2022-10-23T01:07:14.191Z,71.40
2022-10-23T01:09:43.675Z,71.20
2022-10-23T01:12:39.451Z,72.20
2022-10-23T01:15:28.112Z,72.20
2022-10-23T01:18:20.716Z,72.10
2022-10-23T01:21:01.752Z,71.10
2022-10-23T01:23:31.592Z,72.00
2022-10-23T01:26:13.614Z,72.40
2022-10-23T01:28:47.641Z,72.00
2022-10-23T01:31:39.989Z,73.00
2022-10-23T01:34:15.042Z,71.40
2022-10-23T01:36:44.565Z,72.00
2022-10-23T01:39:46.944Z,72.50
2022-10-23T01:42:17.737Z,71.10
2022-10-23T01:44:46.062Z,72.40
2022-10-23T01:47:14.654Z,72.60
2022-10-23T01:49:42.753Z,71.40
2022-10-23T01:52:12.948Z,72.10
2022-10-23T01:54:42.916Z,71.10
2022-10-23T01:57:13.275Z,71.40
2022-10-23T01:59:48.923Z,71.20
2022-10-23T02:02:16.479Z,72.50
2022-10-23T02:04:59.274Z,72.90
2022-10-23T02:07:26.778Z,72.60
2022-10-23T02:09:53.539Z,71.90
2022-10-23T02:12:57.413Z,71.40
2022-10-23T02:15:35.852Z,72.40
2022-10-23T02:18:25.824Z,74.10
2022-10-23T02:21:02.897Z,74.00
2022-10-23T02:23:35.998Z,73.60
2022-10-23T02:26:08.601Z,74.70
2022-10-23T02:28:43.610Z,74.80
2022-10-23T02:31:13.703Z,74.40
2022-10-23T02:33:40.807Z,74.70
2022-10-23T02:36:07.818Z,75.50
2022-10-23T02:38:37.397Z,75.20
2022-10-23T02:41:23.753Z,76.10
2022-10-23T02:44:01.900Z,75.70
2022-10-23T02:46:49.832Z,75.30
2022-10-23T02:49:30.303Z,76.40
2022-10-23T02:52:05.218Z,76.80
2022-10-23T02:54:52.904Z,76.80
2022-10-23T02:57:26.745Z,78.20
2022-10-23T03:00:09.484Z,77.40
2022-10-23T03:02:40.107Z,77.40
2022-10-23T03:05:10.519Z,78.10
2022-10-23T03:07:39.192Z,78.80
2022-10-23T03:10:07.054Z,78.50
2022-10-23T03:12:33.821Z,79.40
2022-10-23T03:15:00.431Z,78.30
2022-10-23T03:17:27.105Z,78.50
2022-10-23T03:19:53.724Z,77.80
2022-10-23T03:22:20.363Z,78.90
2022-10-23T03:24:47.022Z,79.90
2022-10-23T03:27:13.782Z,80.30
2022-10-23T03:29:40.529Z,80.20
2022-10-23T03:32:07.245Z,79.60
2022-10-23T03:34:34.698Z,80.20
2022-10-23T03:37:01.378Z,79.90
2022-10-23T03:39:28.165Z,80.80
2022-10-23T03:41:54.788Z,81.20
2022-10-23T03:44:21.421Z,81.50
2022-10-23T03:46:48.034Z,81.40
2022-10-23T03:49:14.970Z,80.50
2022-10-23T03:51:41.971Z,80.30
2022-10-23T03:54:09.094Z,79.60
2022-10-23T03:56:35.811Z,80.30
2022-10-23T03:59:02.475Z,81.10
2022-10-23T04:01:29.268Z,81.20
2022-10-23T04:03:56.003Z,81.00
2022-10-23T04:06:22.638Z,81.60
2022-10-23T04:08:49.325Z,81.20
2022-10-23T04:11:16.001Z,81.30
2022-10-23T04:13:42.742Z,82.10
2022-10-23T04:16:09.379Z,81.40
2022-10-23T04:18:36.032Z,80.90
2022-10-23T04:21:03.777Z,81.00
2022-10-23T04:23:30.411Z,81.50
2022-10-23T04:25:58.065Z,81.20
2022-10-23T04:28:25.205Z,81.60
2022-10-23T04:30:51.897Z,81.20
2022-10-23T04:33:18.768Z,80.90
2022-10-23T04:35:45.461Z,81.20
2022-10-23T04:38:12.426Z,81.60
2022-10-23T04:40:39.063Z,82.40
2022-10-23T04:43:05.736Z,82.40
2022-10-23T04:45:32.384Z,82.50
2022-10-23T04:47:59.052Z,82.30
2022-10-23T04:50:25.799Z,82.60
2022-10-23T04:52:56.871Z,81.70
2022-10-23T04:55:25.405Z,81.50
2022-10-23T04:57:52.812Z,81.40
2022-10-23T05:00:19.858Z,81.40
2022-10-23T05:02:46.534Z,80.80
2022-10-23T05:05:13.169Z,82.10
2022-10-23T05:07:39.906Z,81.70
2022-10-23T05:10:07.030Z,82.60
2022-10-23T05:12:33.656Z,82.70
2022-10-23T05:15:01.210Z,81.90
2022-10-23T05:17:33.687Z,81.50
2022-10-23T05:20:03.915Z,82.70
2022-10-23T05:22:33.778Z,83.10
2022-10-23T05:25:02.147Z,82.90
2022-10-23T05:27:28.813Z,82.30
2022-10-23T05:29:55.413Z,82.10
2022-10-23T05:32:22.503Z,82.80
2022-10-23T05:34:49.151Z,83.20
2022-10-23T05:37:16.472Z,84.00
2022-10-23T05:39:43.217Z,83.90
2022-10-23T05:42:09.867Z,82.70
2022-10-23T05:44:36.783Z,82.80
2022-10-23T05:47:03.447Z,82.10
2022-10-23T05:49:30.071Z,83.60
2022-10-23T05:51:56.690Z,83.20
2022-10-23T05:54:23.379Z,83.10
2022-10-23T05:56:50.084Z,83.00
2022-10-23T05:59:20.412Z,82.10
2022-10-23T06:01:49.741Z,82.30
2022-10-23T06:04:16.393Z,81.10
2022-10-23T06:06:47.869Z,82.50
2022-10-23T06:09:15.591Z,83.00
2022-10-23T06:11:43.001Z,83.50
2022-10-23T06:14:09.707Z,83.10
2022-10-23T06:16:36.449Z,82.80
2022-10-23T06:19:03.202Z,83.00
2022-10-23T06:21:29.835Z,82.40
2022-10-23T06:23:56.538Z,82.60
2022-10-23T06:26:23.182Z,82.20
2022-10-23T06:28:49.825Z,81.70
2022-10-23T06:31:19.102Z,80.80
2022-10-23T06:33:45.760Z,82.40
2022-10-23T06:36:12.890Z,83.20
2022-10-23T06:38:40.460Z,82.70
2022-10-23T06:41:13.081Z,83.10
2022-10-23T06:43:39.739Z,83.00
2022-10-23T06:46:06.478Z,84.20
2022-10-23T06:48:33.097Z,84.70
2022-10-23T06:51:00.086Z,84.60
2022-10-23T06:53:27.817Z,83.60
2022-10-23T06:56:02.380Z,84.70
2022-10-23T06:58:29.235Z,86.30
2022-10-23T07:00:56.545Z,85.70
2022-10-23T07:03:23.266Z,85.10
2022-10-23T07:05:49.895Z,86.10
2022-10-23T07:08:16.610Z,84.20
2022-10-23T07:10:43.374Z,83.50
2022-10-23T07:13:11.190Z,83.60
2022-10-23T07:15:38.674Z,84.50
2022-10-23T07:18:05.985Z,85.60
2022-10-23T07:20:32.776Z,88.10
2022-10-23T07:22:59.414Z,85.40
2022-10-23T07:25:27.044Z,86.60
2022-10-23T07:27:55.705Z,86.80
2022-10-23T07:30:22.493Z,86.40
2022-10-23T07:32:49.109Z,87.20
2022-10-23T07:35:16.811Z,86.30
2022-10-23T07:37:43.976Z,85.80
2022-10-23T07:40:11.253Z,88.80
2022-10-23T07:42:38.835Z,86.30
2022-10-23T07:45:07.501Z,86.50
2022-10-23T07:47:34.496Z,84.60
2022-10-23T07:50:01.195Z,86.20
2022-10-23T07:52:31.960Z,87.70
2022-10-23T07:55:01.818Z,88.20
2022-10-23T07:57:28.478Z,88.20
2022-10-23T07:59:55.259Z,87.70
2022-10-23T08:02:22.015Z,90.20
2022-10-23T08:04:49.898Z,88.00
2022-10-23T08:07:16.754Z,86.90
2022-10-23T08:09:43.529Z,87.50
2022-10-23T08:12:10.464Z,86.20
2022-10-23T08:14:37.145Z,88.30
2022-10-23T08:17:05.214Z,87.80
2022-10-23T08:19:32.290Z,88.00
2022-10-23T08:21:59.039Z,84.80
2022-10-23T08:24:25.666Z,88.90
2022-10-23T08:26:52.346Z,88.00
2022-10-23T08:29:19.157Z,88.40
2022-10-23T08:31:45.998Z,88.50
2022-10-23T08:34:22.161Z,90.40
2022-10-23T08:37:51.608Z,90.30
2022-10-23T08:39:50.150Z,88.10
2022-10-23T08:42:25.281Z,85.40
2022-10-23T08:45:06.595Z,86.80
2022-10-23T08:47:42.853Z,86.90
2022-10-23T08:50:32.840Z,87.00
2022-10-23T08:53:12.587Z,85.80
2022-10-23T08:55:43.972Z,96.30
2022-10-23T08:58:23.357Z,99.40
2022-10-23T09:00:50.539Z,99.90
2022-10-23T09:03:18.221Z,99.10
2022-10-23T09:06:09.042Z,99.90
2022-10-23T09:08:40.674Z,99.90
2022-10-23T09:11:32.297Z,99.90
2022-10-23T09:14:14.493Z,98.40
2022-10-23T09:17:26.529Z,94.90
2022-10-23T09:20:00.276Z,93.90
2022-10-23T09:22:27.934Z,92.80
2022-10-23T09:24:54.566Z,92.90
2022-10-23T09:27:21.286Z,92.40
2022-10-23T09:29:50.130Z,92.10
2022-10-23T09:32:16.837Z,92.70
2022-10-23T09:34:55.042Z,93.00
2022-10-23T09:37:25.611Z,92.50
2022-10-23T09:40:02.878Z,94.20
2022-10-23T09:42:29.546Z,92.70
2022-10-23T09:44:57.480Z,93.30
2022-10-23T09:47:25.780Z,93.10
2022-10-23T09:49:54.928Z,92.60
2022-10-23T09:52:21.529Z,92.10
2022-10-23T09:54:56.878Z,92.00
2022-10-23T09:57:44.311Z,93.00
2022-10-23T10:00:13.979Z,91.70
2022-10-23T10:08:18.248Z,91.50
2022-10-23T10:10:49.846Z,92.00
2022-10-23T10:13:45.331Z,91.40
2022-10-23T10:19:35.070Z,92.10
2022-10-23T10:22:56.203Z,90.60
2022-10-23T10:25:40.467Z,89.80
2022-10-23T10:28:25.849Z,89.50
2022-10-23T10:31:20.022Z,86.10
2022-10-23T10:34:05.423Z,88.90
2022-10-23T10:36:51.443Z,90.10
2022-10-23T10:39:40.016Z,87.80
2022-10-23T10:42:17.234Z,87.90
2022-10-23T10:45:05.802Z,84.60
2022-10-23T10:48:03.819Z,85.10
2022-10-23T10:51:03.242Z,86.40
2022-10-23T10:54:23.586Z,85.40
2022-10-23T10:56:50.419Z,81.80
2022-10-23T10:59:21.070Z,81.10
2022-10-23T11:02:04.432Z,81.30
2022-10-23T11:04:35.511Z,79.40
2022-10-23T11:07:07.575Z,78.60
2022-10-23T11:09:34.577Z,79.50
2022-10-23T11:12:01.361Z,75.20
2022-10-23T11:14:31.735Z,73.50
2022-10-23T11:17:07.867Z,74.20
2022-10-23T11:19:35.985Z,74.20
2022-10-23T11:22:23.678Z,74.50
2022-10-23T11:25:28.692Z,73.60
2022-10-23T11:28:13.460Z,65.60
2022-10-23T11:31:22.187Z,66.90
2022-10-23T11:34:01.334Z,69.10
2022-10-23T11:37:09.139Z,66.40
2022-10-23T11:39:37.743Z,67.20
2022-10-23T11:42:04.341Z,64.00
2022-10-23T11:44:45.994Z,64.80
2022-10-23T11:47:34.990Z,60.90
2022-10-23T11:50:07.735Z,58.70
2022-10-23T11:53:12.609Z,61.40
2022-10-23T11:55:42.069Z,62.30
2022-10-23T11:58:22.317Z,59.70
2022-10-23T12:00:59.874Z,58.70
2022-10-23T12:03:31.627Z,62.50
2022-10-23T12:06:04.475Z,61.40
2022-10-23T12:08:34.206Z,63.60
2022-10-23T12:11:01.099Z,63.70
2022-10-23T12:13:37.392Z,62.10
2022-10-23T12:16:07.453Z,62.50
2022-10-23T12:18:44.573Z,63.90
2022-10-23T12:21:22.967Z,63.40
2022-10-23T12:24:09.240Z,63.20
2022-10-23T12:26:46.765Z,65.20
2022-10-23T12:29:22.219Z,61.60
2022-10-23T12:32:01.839Z,60.40
2022-10-23T12:34:46.290Z,59.20
2022-10-23T12:37:51.516Z,61.30
2022-10-23T12:40:18.278Z,59.90
2022-10-23T12:42:54.620Z,61.40
2022-10-23T12:45:27.756Z,58.00
2022-10-23T12:47:54.900Z,59.20
2022-10-23T12:50:27.370Z,59.40
2022-10-23T12:52:56.380Z,63.10
2022-10-23T12:55:24.997Z,59.80
2022-10-23T12:57:52.752Z,66.50
2022-10-23T13:00:22.223Z,64.30
2022-10-23T13:02:59.931Z,65.00
2022-10-23T13:05:27.615Z,66.10
2022-10-23T13:07:54.524Z,66.80
2022-10-23T13:10:22.590Z,68.40
2022-10-23T13:12:58.521Z,70.40
2022-10-23T13:15:26.677Z,69.40
2022-10-23T13:17:53.336Z,66.50
2022-10-23T13:20:28.869Z,69.30
2022-10-23T13:23:00.764Z,68.40
2022-10-23T13:25:33.184Z,69.90
2022-10-23T13:28:14.066Z,71.00
2022-10-23T13:30:46.122Z,68.50
2022-10-23T13:33:23.415Z,68.80
2022-10-23T13:36:02.432Z,60.10
2022-10-23T13:38:31.237Z,55.10
2022-10-23T13:41:02.051Z,52.10
2022-10-23T13:43:30.708Z,47.80
2022-10-23T13:46:01.321Z,50.90
2022-10-23T13:48:29.037Z,46.50
2022-10-23T13:51:02.350Z,41.40
2022-10-23T13:53:30.464Z,39.10
2022-10-23T13:55:58.716Z,36.70
2022-10-23T13:58:25.845Z,35.90
2022-10-23T14:00:53.209Z,34.70
2022-10-23T14:03:24.273Z,29.30
2022-10-23T14:05:51.709Z,32.50
2022-10-23T14:08:18.553Z,29.70
2022-10-23T14:10:45.951Z,28.60
2022-10-23T14:13:12.698Z,28.40
2022-10-23T14:15:39.480Z,27.80
2022-10-23T14:18:08.356Z,24.90
2022-10-23T14:20:35.285Z,27.90
2022-10-23T14:23:02.101Z,28.50
2022-10-23T14:25:28.717Z,30.20
2022-10-23T14:30:26.846Z,30.80
2022-10-23T14:32:53.457Z,26.80
2022-10-23T14:35:20.155Z,29.30
2022-10-23T14:37:47.219Z,27.80
2022-10-23T14:40:13.927Z,28.20
2022-10-23T14:42:40.610Z,32.40
2022-10-23T14:45:07.876Z,30.40
2022-10-23T14:47:34.689Z,32.10
2022-10-23T14:50:04.563Z,28.20
2022-10-23T14:52:31.614Z,27.30
2022-10-23T14:54:58.769Z,25.90
2022-10-23T14:57:25.860Z,27.60
2022-10-23T15:00:01.167Z,27.90
2022-10-23T15:02:28.690Z,27.30
2022-10-23T15:04:55.532Z,29.70
2022-10-23T15:07:22.218Z,31.40
2022-10-23T15:09:51.750Z,33.40
2022-10-23T15:12:18.782Z,31.40
2022-10-23T15:14:52.985Z,35.70
2022-10-23T15:17:20.251Z,37.90
2022-10-23T15:19:48.256Z,35.40
2022-10-23T15:22:14.880Z,39.30
2022-10-23T15:24:41.783Z,33.00
2022-10-23T15:29:36.197Z,34.90
2022-10-23T15:32:04.233Z,37.30
2022-10-23T15:34:32.408Z,40.40
2022-10-23T15:36:59.458Z,40.20
2022-10-23T15:39:29.341Z,40.30
2022-10-23T15:41:58.145Z,42.00
2022-10-23T15:44:27.068Z,41.50
2022-10-23T15:46:54.203Z,42.10
2022-10-23T15:49:20.848Z,43.40
2022-10-23T15:51:47.580Z,42.70
2022-10-23T15:54:17.022Z,42.10
2022-10-23T15:56:44.652Z,43.70
2022-10-23T15:59:30.584Z,45.10
2022-10-23T16:01:57.495Z,46.40
2022-10-23T16:04:24.410Z,46.70
2022-10-23T16:06:51.154Z,47.50
2022-10-23T16:09:17.854Z,47.10
2022-10-23T16:11:45.286Z,46.40
2022-10-23T16:14:14.581Z,46.50
2022-10-23T16:16:41.243Z,47.10
2022-10-23T16:19:08.281Z,47.90
2022-10-23T16:21:36.143Z,46.90
2022-10-23T16:24:04.950Z,47.50
2022-10-23T16:26:31.831Z,47.60
2022-10-23T16:29:01.189Z,46.70
2022-10-23T16:31:27.924Z,48.70
2022-10-23T16:36:28.964Z,48.10
2022-10-23T16:38:55.981Z,47.80
2022-10-23T16:41:22.614Z,49.90
2022-10-23T16:43:49.390Z,47.50
2022-10-23T16:46:18.635Z,49.00
2022-10-23T16:48:45.879Z,47.70
2022-10-23T16:51:14.853Z,50.00
2022-10-23T16:53:42.477Z,49.90
2022-10-23T16:56:10.762Z,50.00
2022-10-23T16:58:37.692Z,50.30
2022-10-23T17:01:07.800Z,50.50
2022-10-23T17:03:40.196Z,51.10
2022-10-23T17:06:11.234Z,52.10
2022-10-23T17:08:38.606Z,52.10
2022-10-23T17:11:14.374Z,52.70
2022-10-23T17:13:46.766Z,53.20
2022-10-23T17:16:19.507Z,53.00
2022-10-23T17:18:46.264Z,52.30
2022-10-23T17:21:14.134Z,53.20
2022-10-23T17:23:41.574Z,53.90
2022-10-23T17:26:12.876Z,53.50
2022-10-23T17:28:42.131Z,55.20
2022-10-23T17:31:20.591Z,54.90
2022-10-23T17:33:48.141Z,56.10
2022-10-23T17:36:15.835Z,55.30
2022-10-23T17:38:45.901Z,56.00
2022-10-23T17:41:14.033Z,56.10
2022-10-23T17:43:40.847Z,56.60
2022-10-23T17:46:09.599Z,56.50
2022-10-23T17:48:36.546Z,56.20
2022-10-23T17:51:06.682Z,58.60
2022-10-23T17:53:34.395Z,56.40
2022-10-23T17:56:02.861Z,57.80
2022-10-23T17:58:29.949Z,57.30
2022-10-23T18:00:56.987Z,57.30
2022-10-23T18:03:23.787Z,57.50
2022-10-23T18:05:51.210Z,56.80
2022-10-23T18:08:17.849Z,58.00
2022-10-23T18:10:44.569Z,57.60
2022-10-23T18:13:11.261Z,56.20
2022-10-23T18:15:41.142Z,59.70
2022-10-23T18:18:07.882Z,59.20
2022-10-23T18:20:40.908Z,57.50
2022-10-23T18:23:13.549Z,58.20
2022-10-23T18:25:43.324Z,57.40
2022-10-23T18:28:10.253Z,56.80
2022-10-23T18:33:05.058Z,57.50
2022-10-23T18:35:35.955Z,57.00
2022-10-23T18:38:04.287Z,59.60
2022-10-23T18:40:32.215Z,59.30
2022-10-23T18:42:59.098Z,59.60
2022-10-23T18:45:25.850Z,56.90
2022-10-23T18:47:52.505Z,54.60
2022-10-23T18:50:19.461Z,55.40
2022-10-23T18:52:46.178Z,55.30
2022-10-23T18:55:13.202Z,54.00
2022-10-23T18:57:40.327Z,53.30
2022-10-23T19:00:08.859Z,54.70
2022-10-23T19:02:37.033Z,56.40
2022-10-23T19:05:04.950Z,56.70
2022-10-23T19:07:33.008Z,55.20
2022-10-23T19:10:00.677Z,55.90
2022-10-23T19:12:27.336Z,56.30
2022-10-23T19:14:54.925Z,55.60
2022-10-23T19:17:27.531Z,55.10
2022-10-23T19:20:00.131Z,54.90
2022-10-23T19:22:29.343Z,57.40
2022-10-23T19:25:03.806Z,56.40
2022-10-23T19:27:30.834Z,57.40
2022-10-23T19:30:03.198Z,57.90
2022-10-23T19:32:30.632Z,57.40
2022-10-23T19:34:58.583Z,57.30
2022-10-23T19:37:25.345Z,57.60
2022-10-23T19:39:51.997Z,58.30
2022-10-23T19:42:18.736Z,58.60
2022-10-23T19:44:45.393Z,57.30
2022-10-23T19:47:11.992Z,58.20
2022-10-23T19:49:38.636Z,57.30
2022-10-23T19:52:05.299Z,57.50
2022-10-23T19:54:32.277Z,57.70
2022-10-23T19:56:59.112Z,57.80
2022-10-23T19:59:25.786Z,57.40
2022-10-23T20:01:52.490Z,57.50
2022-10-23T20:04:19.477Z,58.20
2022-10-23T20:06:46.876Z,57.60
2022-10-23T20:09:13.526Z,57.50
2022-10-23T20:11:40.851Z,56.80
2022-10-23T20:14:08.053Z,56.30
2022-10-23T20:16:37.068Z,56.40
2022-10-23T20:19:07.158Z,57.20
2022-10-23T20:21:38.236Z,57.80
2022-10-23T20:24:05.671Z,57.70
2022-10-23T20:26:32.553Z,58.90
2022-10-23T20:28:59.164Z,59.60
2022-10-23T20:31:26.818Z,60.00
2022-10-23T20:33:54.259Z,59.20
2022-10-23T20:36:22.744Z,59.50
2022-10-23T20:38:49.517Z,57.30
2022-10-23T20:41:16.132Z,56.30
2022-10-23T20:43:43.112Z,55.70
2022-10-23T20:46:10.391Z,55.50
2022-10-23T20:48:38.339Z,55.50
2022-10-23T20:51:06.718Z,55.80
2022-10-23T20:53:35.349Z,54.50
2022-10-23T20:56:11.647Z,53.10
2022-10-23T20:58:38.334Z,51.40
2022-10-23T21:01:06.909Z,50.90
2022-10-23T21:03:34.132Z,45.50
2022-10-23T21:06:05.384Z,47.00
2022-10-23T21:08:32.185Z,42.10
2022-10-23T21:10:58.928Z,44.30
2022-10-23T21:13:27.165Z,38.50
2022-10-23T21:15:54.129Z,41.70
2022-10-23T21:18:33.836Z,39.30
2022-10-23T21:21:08.518Z,39.40
2022-10-23T21:23:35.990Z,31.80
2022-10-23T21:26:06.351Z,38.40
2022-10-23T21:28:34.573Z,27.00
2022-10-23T21:31:06.670Z,33.90
2022-10-23T21:33:33.485Z,29.10
2022-10-23T21:36:12.825Z,26.10
2022-10-23T21:38:40.421Z,33.20
2022-10-23T21:41:08.807Z,23.90
2022-10-23T21:43:35.503Z,29.00
2022-10-23T21:46:06.524Z,25.40
2022-10-23T21:48:34.307Z,26.30
2022-10-23T21:51:01.439Z,26.00
2022-10-23T21:53:28.889Z,23.70
2022-10-23T21:55:56.757Z,20.40
2022-10-23T21:58:23.604Z,21.80
2022-10-23T22:00:50.296Z,16.40
2022-10-23T22:03:16.957Z,20.40
2022-10-23T22:05:43.693Z,17.00
2022-10-23T22:08:10.364Z,21.80
2022-10-23T22:10:37.188Z,14.40
2022-10-23T22:13:03.925Z,15.00
2022-10-23T22:15:30.629Z,15.00
2022-10-23T22:17:59.151Z,17.70
2022-10-23T22:20:26.060Z,18.40
2022-10-23T22:22:52.808Z,13.60
2022-10-23T22:25:19.527Z,16.10
2022-10-23T22:27:46.571Z,19.50
2022-10-23T22:30:13.611Z,20.10
2022-10-23T22:32:40.397Z,22.60
2022-10-23T22:35:07.623Z,18.80
2022-10-23T22:37:34.483Z,16.10
2022-10-23T22:40:02.446Z,16.10
2022-10-23T22:42:30.479Z,12.80
2022-10-23T22:44:57.210Z,19.50
2022-10-23T22:47:24.086Z,20.80
2022-10-23T22:49:51.633Z,15.00
2022-10-23T22:52:18.335Z,14.30
2022-10-23T22:54:45.026Z,15.90
2022-10-23T22:57:11.730Z,16.50
2022-10-23T22:59:38.510Z,16.10
2022-10-23T23:02:05.436Z,13.80
2022-10-23T23:04:37.674Z,18.00
2022-10-23T23:07:06.874Z,21.20
2022-10-23T23:09:37.314Z,22.20
2022-10-23T23:12:04.384Z,22.60
2022-10-23T23:14:31.069Z,22.20
2022-10-23T23:16:57.800Z,20.60
2022-10-23T23:19:26.608Z,22.80
2022-10-23T23:21:57.549Z,17.10
2022-10-23T23:24:25.184Z,16.70
2022-10-23T23:26:52.081Z,19.60
2022-10-23T23:29:19.169Z,19.90
2022-10-23T23:31:45.986Z,18.60
2022-10-23T23:34:12.717Z,19.50
2022-10-23T23:36:39.597Z,20.10
2022-10-23T23:39:06.391Z,17.20
2022-10-23T23:41:34.304Z,18.40
2022-10-23T23:44:01.139Z,16.60
2022-10-23T23:46:28.027Z,18.80
2022-10-23T23:48:54.721Z,17.00
2022-10-23T23:51:23.322Z,15.10
2022-10-23T23:53:50.781Z,16.70
2022-10-23T23:56:18.212Z,16.50
2022-10-23T23:58:44.987Z,15.00
